sensor_id;sensor_type;location;lat;lon;timestamp;temperature;humidity
7762;DHT22;3925;48.636;9.516;2023-05-07T00:00:22;14.40;99.90
7762;DHT22;3925;48.636;9.516;2023-05-07T00:02:49;14.40;99.90
7762;DHT22;3925;48.636;9.516;2023-05-07T00:05:18;14.30;99.90
7762;DHT22;3925;48.636;9.516;2023-05-07T00:07:45;14.30;99.90
7762;DHT22;3925;48.636;9.516;2023-05-07T00:10:11;14.20;99.90
7762;DHT22;3925;48.636;9.516;2023-05-07T00:12:40;14.20;99.90
7762;DHT22;3925;48.636;9.516;2023-05-07T00:15:07;14.30;99.90
7762;DHT22;3925;48.636;9.516;2023-05-07T00:17:34;14.20;99.90
7762;DHT22;3925;48.636;9.516;2023-05-07T00:20:02;14.30;99.90
7762;DHT22;3925;48.636;9.516;2023-05-07T00:22:31;14.30;99.90
7762;DHT22;3925;48.636;9.516;2023-05-07T00:24:58;14.40;99.90
7762;DHT22;3925;48.636;9.516;2023-05-07T00:27:25;14.30;99.90
7762;DHT22;3925;48.636;9.516;2023-05-07T00:29:52;14.30;99.90
7762;DHT22;3925;48.636;9.516;2023-05-07T00:32:19;14.20;99.90
7762;DHT22;3925;48.636;9.516;2023-05-07T00:34:46;14.10;99.90
7762;DHT22;3925;48.636;9.516;2023-05-07T00:37:12;14.00;99.90
7762;DHT22;3925;48.636;9.516;2023-05-07T00:39:41;14.00;99.90
7762;DHT22;3925;48.636;9.516;2023-05-07T00:42:07;14.00;99.90
7762;DHT22;3925;48.636;9.516;2023-05-07T00:44:34;13.90;99.90
7762;DHT22;3925;48.636;9.516;2023-05-07T00:47:02;14.00;99.90
7762;DHT22;3925;48.636;9.516;2023-05-07T00:49:37;13.90;99.90
7762;DHT22;3925;48.636;9.516;2023-05-07T00:52:06;13.90;99.90
7762;DHT22;3925;48.636;9.516;2023-05-07T00:54:34;14.10;99.90
7762;DHT22;3925;48.636;9.516;2023-05-07T00:57:03;14.10;99.90
7762;DHT22;3925;48.636;9.516;2023-05-07T00:59:31;14.10;99.90
7762;DHT22;3925;48.636;9.516;2023-05-07T01:01:58;14.10;99.90
7762;DHT22;3925;48.636;9.516;2023-05-07T01:04:26;14.10;99.90
7762;DHT22;3925;48.636;9.516;2023-05-07T01:06:54;13.90;99.90
7762;DHT22;3925;48.636;9.516;2023-05-07T01:09:22;13.90;99.90
7762;DHT22;3925;48.636;9.516;2023-05-07T01:11:49;13.90;99.90
7762;DHT22;3925;48.636;9.516;2023-05-07T01:14:19;13.90;99.90
7762;DHT22;3925;48.636;9.516;2023-05-07T01:16:46;13.90;99.90
7762;DHT22;3925;48.636;9.516;2023-05-07T01:19:14;13.90;99.90
7762;DHT22;3925;48.636;9.516;2023-05-07T01:21:46;13.90;99.90
7762;DHT22;3925;48.636;9.516;2023-05-07T01:24:14;13.90;99.90
7762;DHT22;3925;48.636;9.516;2023-05-07T01:26:42;13.80;99.90
7762;DHT22;3925;48.636;9.516;2023-05-07T01:29:09;13.80;99.90
7762;DHT22;3925;48.636;9.516;2023-05-07T01:31:36;13.80;99.90
7762;DHT22;3925;48.636;9.516;2023-05-07T01:34:05;13.80;99.90
7762;DHT22;3925;48.636;9.516;2023-05-07T01:36:34;13.80;99.90
7762;DHT22;3925;48.636;9.516;2023-05-07T01:39:02;13.90;99.90
7762;DHT22;3925;48.636;9.516;2023-05-07T01:41:31;13.80;99.90
7762;DHT22;3925;48.636;9.516;2023-05-07T01:43:58;13.80;99.90
7762;DHT22;3925;48.636;9.516;2023-05-07T01:46:26;13.70;99.90
7762;DHT22;3925;48.636;9.516;2023-05-07T01:48:53;13.70;99.90
7762;DHT22;3925;48.636;9.516;2023-05-07T01:51:20;13.60;99.90
7762;DHT22;3925;48.636;9.516;2023-05-07T01:53:48;13.60;99.90
7762;DHT22;3925;48.636;9.516;2023-05-07T01:56:16;13.60;99.90
7762;DHT22;3925;48.636;9.516;2023-05-07T01:58:45;13.70;99.90
7762;DHT22;3925;48.636;9.516;2023-05-07T02:01:13;13.60;99.90
7762;DHT22;3925;48.636;9.516;2023-05-07T02:03:40;13.60;99.90
7762;DHT22;3925;48.636;9.516;2023-05-07T02:06:06;13.60;99.90
7762;DHT22;3925;48.636;9.516;2023-05-07T02:08:33;13.60;99.90
7762;DHT22;3925;48.636;9.516;2023-05-07T02:11:00;13.60;99.90
7762;DHT22;3925;48.636;9.516;2023-05-07T02:13:30;13.60;99.90
7762;DHT22;3925;48.636;9.516;2023-05-07T02:15:58;13.60;99.90
7762;DHT22;3925;48.636;9.516;2023-05-07T02:18:25;13.60;99.90
7762;DHT22;3925;48.636;9.516;2023-05-07T02:20:52;13.50;99.90
7762;DHT22;3925;48.636;9.516;2023-05-07T02:23:19;13.60;99.90
7762;DHT22;3925;48.636;9.516;2023-05-07T02:25:45;13.60;99.90
7762;DHT22;3925;48.636;9.516;2023-05-07T02:28:12;13.60;99.90
7762;DHT22;3925;48.636;9.516;2023-05-07T02:30:39;13.60;99.90
7762;DHT22;3925;48.636;9.516;2023-05-07T02:33:07;13.60;99.90
7762;DHT22;3925;48.636;9.516;2023-05-07T02:35:35;13.60;99.90
7762;DHT22;3925;48.636;9.516;2023-05-07T02:38:01;13.60;99.90
7762;DHT22;3925;48.636;9.516;2023-05-07T02:40:28;13.60;99.90
7762;DHT22;3925;48.636;9.516;2023-05-07T02:42:55;13.60;99.90
7762;DHT22;3925;48.636;9.516;2023-05-07T02:45:22;13.60;99.90
7762;DHT22;3925;48.636;9.516;2023-05-07T02:47:49;13.40;99.90
7762;DHT22;3925;48.636;9.516;2023-05-07T02:50:17;13.40;99.90
7762;DHT22;3925;48.636;9.516;2023-05-07T02:52:44;13.40;99.90
7762;DHT22;3925;48.636;9.516;2023-05-07T02:55:11;13.40;99.90
7762;DHT22;3925;48.636;9.516;2023-05-07T02:57:37;13.40;99.90
7762;DHT22;3925;48.636;9.516;2023-05-07T03:00:12;13.40;99.90
7762;DHT22;3925;48.636;9.516;2023-05-07T03:02:39;13.40;99.90
7762;DHT22;3925;48.636;9.516;2023-05-07T03:05:06;13.40;99.90
7762;DHT22;3925;48.636;9.516;2023-05-07T03:07:35;13.40;99.90
7762;DHT22;3925;48.636;9.516;2023-05-07T03:10:02;13.30;99.90
7762;DHT22;3925;48.636;9.516;2023-05-07T03:12:29;13.30;99.90
7762;DHT22;3925;48.636;9.516;2023-05-07T03:14:56;13.20;99.90
7762;DHT22;3925;48.636;9.516;2023-05-07T03:17:23;13.30;99.90
7762;DHT22;3925;48.636;9.516;2023-05-07T03:19:50;13.30;99.90
7762;DHT22;3925;48.636;9.516;2023-05-07T03:22:17;13.30;99.90
7762;DHT22;3925;48.636;9.516;2023-05-07T03:24:45;13.20;99.90
7762;DHT22;3925;48.636;9.516;2023-05-07T03:27:12;13.10;99.90
7762;DHT22;3925;48.636;9.516;2023-05-07T03:29:38;13.00;99.90
7762;DHT22;3925;48.636;9.516;2023-05-07T03:32:05;13.00;99.90
7762;DHT22;3925;48.636;9.516;2023-05-07T03:34:32;13.00;99.90
7762;DHT22;3925;48.636;9.516;2023-05-07T03:36:59;13.00;99.90
7762;DHT22;3925;48.636;9.516;2023-05-07T03:39:26;13.00;99.90
7762;DHT22;3925;48.636;9.516;2023-05-07T03:41:54;12.90;99.90
7762;DHT22;3925;48.636;9.516;2023-05-07T03:44:21;12.80;99.90
7762;DHT22;3925;48.636;9.516;2023-05-07T03:46:48;12.80;99.90
7762;DHT22;3925;48.636;9.516;2023-05-07T03:49:15;12.70;99.90
7762;DHT22;3925;48.636;9.516;2023-05-07T03:51:42;12.70;99.90
7762;DHT22;3925;48.636;9.516;2023-05-07T03:54:09;12.60;99.90
7762;DHT22;3925;48.636;9.516;2023-05-07T03:56:35;12.60;99.90
7762;DHT22;3925;48.636;9.516;2023-05-07T03:59:04;12.60;99.90
7762;DHT22;3925;48.636;9.516;2023-05-07T04:01:30;12.70;99.90
7762;DHT22;3925;48.636;9.516;2023-05-07T04:03:57;12.60;99.90
7762;DHT22;3925;48.636;9.516;2023-05-07T04:06:24;12.40;99.90
7762;DHT22;3925;48.636;9.516;2023-05-07T04:08:51;12.50;99.90
7762;DHT22;3925;48.636;9.516;2023-05-07T04:11:18;12.40;99.90
7762;DHT22;3925;48.636;9.516;2023-05-07T04:13:45;12.40;99.90
7762;DHT22;3925;48.636;9.516;2023-05-07T04:16:14;12.60;99.90
7762;DHT22;3925;48.636;9.516;2023-05-07T04:18:41;12.70;99.90
7762;DHT22;3925;48.636;9.516;2023-05-07T04:21:14;12.70;99.90
7762;DHT22;3925;48.636;9.516;2023-05-07T04:23:41;12.70;99.90
7762;DHT22;3925;48.636;9.516;2023-05-07T04:26:08;12.90;99.90
7762;DHT22;3925;48.636;9.516;2023-05-07T04:28:35;12.90;99.90
7762;DHT22;3925;48.636;9.516;2023-05-07T04:31:02;12.80;99.90
7762;DHT22;3925;48.636;9.516;2023-05-07T04:33:30;12.80;99.90
7762;DHT22;3925;48.636;9.516;2023-05-07T04:35:58;12.70;99.90
7762;DHT22;3925;48.636;9.516;2023-05-07T04:38:28;12.70;99.90
7762;DHT22;3925;48.636;9.516;2023-05-07T04:40:55;12.70;99.90
7762;DHT22;3925;48.636;9.516;2023-05-07T04:43:22;12.80;99.90
7762;DHT22;3925;48.636;9.516;2023-05-07T04:45:50;13.10;99.90
7762;DHT22;3925;48.636;9.516;2023-05-07T04:48:17;13.10;99.90
7762;DHT22;3925;48.636;9.516;2023-05-07T04:50:47;13.20;99.90
7762;DHT22;3925;48.636;9.516;2023-05-07T04:53:14;13.40;99.90
7762;DHT22;3925;48.636;9.516;2023-05-07T04:55:41;13.40;99.90
7762;DHT22;3925;48.636;9.516;2023-05-07T04:58:09;13.30;99.90
7762;DHT22;3925;48.636;9.516;2023-05-07T05:00:36;13.50;99.90
7762;DHT22;3925;48.636;9.516;2023-05-07T05:03:03;13.50;99.90
7762;DHT22;3925;48.636;9.516;2023-05-07T05:05:30;13.60;99.90
7762;DHT22;3925;48.636;9.516;2023-05-07T05:07:58;13.60;99.90
7762;DHT22;3925;48.636;9.516;2023-05-07T05:10:25;13.70;99.90
7762;DHT22;3925;48.636;9.516;2023-05-07T05:12:52;13.50;99.90
7762;DHT22;3925;48.636;9.516;2023-05-07T05:15:19;13.80;99.90
7762;DHT22;3925;48.636;9.516;2023-05-07T05:17:45;14.00;99.90
7762;DHT22;3925;48.636;9.516;2023-05-07T05:20:12;14.70;99.90
7762;DHT22;3925;48.636;9.516;2023-05-07T05:22:40;16.30;99.90
7762;DHT22;3925;48.636;9.516;2023-05-07T05:25:08;18.20;99.90
7762;DHT22;3925;48.636;9.516;2023-05-07T05:27:35;20.50;99.90
7762;DHT22;3925;48.636;9.516;2023-05-07T05:30:03;22.60;99.90
7762;DHT22;3925;48.636;9.516;2023-05-07T05:32:30;24.20;96.60
7762;DHT22;3925;48.636;9.516;2023-05-07T05:34:57;25.90;92.80
7762;DHT22;3925;48.636;9.516;2023-05-07T05:37:25;26.90;88.70
7762;DHT22;3925;48.636;9.516;2023-05-07T05:39:52;28.20;80.40
7762;DHT22;3925;48.636;9.516;2023-05-07T05:42:21;29.20;75.60
7762;DHT22;3925;48.636;9.516;2023-05-07T05:44:48;30.20;70.40
7762;DHT22;3925;48.636;9.516;2023-05-07T05:47:15;30.80;63.70
7762;DHT22;3925;48.636;9.516;2023-05-07T05:49:42;29.80;65.60
7762;DHT22;3925;48.636;9.516;2023-05-07T05:52:09;30.90;61.10
7762;DHT22;3925;48.636;9.516;2023-05-07T05:54:36;31.60;59.60
7762;DHT22;3925;48.636;9.516;2023-05-07T05:57:03;31.60;59.50
7762;DHT22;3925;48.636;9.516;2023-05-07T05:59:32;32.70;56.70
7762;DHT22;3925;48.636;9.516;2023-05-07T06:01:59;32.90;55.50
7762;DHT22;3925;48.636;9.516;2023-05-07T06:04:26;33.50;53.20
7762;DHT22;3925;48.636;9.516;2023-05-07T06:06:53;34.20;52.10
7762;DHT22;3925;48.636;9.516;2023-05-07T06:09:20;35.10;50.30
7762;DHT22;3925;48.636;9.516;2023-05-07T06:11:46;35.70;48.00
7762;DHT22;3925;48.636;9.516;2023-05-07T06:14:13;36.40;47.00
7762;DHT22;3925;48.636;9.516;2023-05-07T06:16:41;36.80;46.60
7762;DHT22;3925;48.636;9.516;2023-05-07T06:19:08;37.10;44.80
7762;DHT22;3925;48.636;9.516;2023-05-07T06:21:35;37.50;42.90
7762;DHT22;3925;48.636;9.516;2023-05-07T06:24:02;37.80;44.10
7762;DHT22;3925;48.636;9.516;2023-05-07T06:26:29;38.20;42.50
7762;DHT22;3925;48.636;9.516;2023-05-07T06:28:56;38.90;41.90
7762;DHT22;3925;48.636;9.516;2023-05-07T06:31:23;39.30;39.80
7762;DHT22;3925;48.636;9.516;2023-05-07T06:33:51;39.20;40.40
7762;DHT22;3925;48.636;9.516;2023-05-07T06:36:18;39.10;40.70
7762;DHT22;3925;48.636;9.516;2023-05-07T06:38:44;38.60;40.60
7762;DHT22;3925;48.636;9.516;2023-05-07T06:41:11;38.40;41.30
7762;DHT22;3925;48.636;9.516;2023-05-07T06:43:38;38.60;40.90
7762;DHT22;3925;48.636;9.516;2023-05-07T06:46:05;38.40;40.50
7762;DHT22;3925;48.636;9.516;2023-05-07T06:48:32;38.80;39.50
7762;DHT22;3925;48.636;9.516;2023-05-07T06:51:00;38.80;40.00
7762;DHT22;3925;48.636;9.516;2023-05-07T06:53:27;38.40;40.20
7762;DHT22;3925;48.636;9.516;2023-05-07T06:55:54;38.90;39.90
7762;DHT22;3925;48.636;9.516;2023-05-07T06:58:21;39.70;40.70
7762;DHT22;3925;48.636;9.516;2023-05-07T07:00:48;40.50;38.10
7762;DHT22;3925;48.636;9.516;2023-05-07T07:03:15;40.70;35.90
7762;DHT22;3925;48.636;9.516;2023-05-07T07:05:41;40.70;36.70
7762;DHT22;3925;48.636;9.516;2023-05-07T07:08:10;40.50;35.50
7762;DHT22;3925;48.636;9.516;2023-05-07T07:10:37;40.20;36.60
7762;DHT22;3925;48.636;9.516;2023-05-07T07:13:04;40.50;36.00
7762;DHT22;3925;48.636;9.516;2023-05-07T07:15:30;40.00;36.20
7762;DHT22;3925;48.636;9.516;2023-05-07T07:17:57;38.80;37.10
7762;DHT22;3925;48.636;9.516;2023-05-07T07:20:24;37.50;38.30
7762;DHT22;3925;48.636;9.516;2023-05-07T07:22:51;36.20;40.40
7762;DHT22;3925;48.636;9.516;2023-05-07T07:25:19;35.80;42.80
7762;DHT22;3925;48.636;9.516;2023-05-07T07:27:46;35.70;42.40
7762;DHT22;3925;48.636;9.516;2023-05-07T07:30:13;35.70;41.90
7762;DHT22;3925;48.636;9.516;2023-05-07T07:32:40;36.00;41.80
7762;DHT22;3925;48.636;9.516;2023-05-07T07:35:07;35.50;41.70
7762;DHT22;3925;48.636;9.516;2023-05-07T07:37:34;35.90;41.40
7762;DHT22;3925;48.636;9.516;2023-05-07T07:40:01;36.90;41.80
7762;DHT22;3925;48.636;9.516;2023-05-07T07:42:30;36.00;41.10
7762;DHT22;3925;48.636;9.516;2023-05-07T07:44:57;35.60;42.70
7762;DHT22;3925;48.636;9.516;2023-05-07T07:47:24;34.80;42.90
7762;DHT22;3925;48.636;9.516;2023-05-07T07:49:50;35.80;42.30
7762;DHT22;3925;48.636;9.516;2023-05-07T07:52:18;35.60;42.40
7762;DHT22;3925;48.636;9.516;2023-05-07T07:54:45;36.30;43.10
7762;DHT22;3925;48.636;9.516;2023-05-07T07:57:12;36.30;42.20
7762;DHT22;3925;48.636;9.516;2023-05-07T07:59:41;35.00;41.70
7762;DHT22;3925;48.636;9.516;2023-05-07T08:02:08;34.60;42.20
7762;DHT22;3925;48.636;9.516;2023-05-07T08:04:35;34.90;42.20
7762;DHT22;3925;48.636;9.516;2023-05-07T08:07:02;33.80;42.80
7762;DHT22;3925;48.636;9.516;2023-05-07T08:09:29;34.90;42.20
7762;DHT22;3925;48.636;9.516;2023-05-07T08:11:56;33.80;43.10
7762;DHT22;3925;48.636;9.516;2023-05-07T08:14:23;34.40;43.10
7762;DHT22;3925;48.636;9.516;2023-05-07T08:16:51;32.80;43.90
7762;DHT22;3925;48.636;9.516;2023-05-07T08:19:18;32.20;46.70
7762;DHT22;3925;48.636;9.516;2023-05-07T08:21:45;33.60;44.50
7762;DHT22;3925;48.636;9.516;2023-05-07T08:24:13;34.20;42.50
7762;DHT22;3925;48.636;9.516;2023-05-07T08:26:40;33.80;43.50
7762;DHT22;3925;48.636;9.516;2023-05-07T08:29:07;34.20;41.90
7762;DHT22;3925;48.636;9.516;2023-05-07T08:31:34;33.40;42.70
7762;DHT22;3925;48.636;9.516;2023-05-07T08:34:04;32.30;45.50
7762;DHT22;3925;48.636;9.516;2023-05-07T08:36:31;33.00;45.50
7762;DHT22;3925;48.636;9.516;2023-05-07T08:38:57;34.20;43.90
7762;DHT22;3925;48.636;9.516;2023-05-07T08:41:24;33.30;43.80
7762;DHT22;3925;48.636;9.516;2023-05-07T08:43:51;33.30;43.30
7762;DHT22;3925;48.636;9.516;2023-05-07T08:46:19;34.10;42.30
7762;DHT22;3925;48.636;9.516;2023-05-07T08:48:48;34.80;41.20
7762;DHT22;3925;48.636;9.516;2023-05-07T08:51:18;34.90;41.70
7762;DHT22;3925;48.636;9.516;2023-05-07T08:53:47;36.80;39.90
7762;DHT22;3925;48.636;9.516;2023-05-07T08:56:16;36.90;37.30
7762;DHT22;3925;48.636;9.516;2023-05-07T08:58:44;37.70;37.20
7762;DHT22;3925;48.636;9.516;2023-05-07T09:01:14;37.60;38.80
7762;DHT22;3925;48.636;9.516;2023-05-07T09:03:42;36.30;37.10
7762;DHT22;3925;48.636;9.516;2023-05-07T09:06:10;35.70;38.50
7762;DHT22;3925;48.636;9.516;2023-05-07T09:08:38;35.80;40.80
7762;DHT22;3925;48.636;9.516;2023-05-07T09:11:05;36.70;39.20
7762;DHT22;3925;48.636;9.516;2023-05-07T09:13:32;38.00;36.60
7762;DHT22;3925;48.636;9.516;2023-05-07T09:16:09;37.40;37.10
7762;DHT22;3925;48.636;9.516;2023-05-07T09:18:40;36.90;36.60
7762;DHT22;3925;48.636;9.516;2023-05-07T09:21:09;37.10;36.90
7762;DHT22;3925;48.636;9.516;2023-05-07T09:23:36;34.80;39.00
7762;DHT22;3925;48.636;9.516;2023-05-07T09:26:04;34.50;41.90
7762;DHT22;3925;48.636;9.516;2023-05-07T09:28:38;33.50;39.90
7762;DHT22;3925;48.636;9.516;2023-05-07T09:31:05;33.40;42.10
7762;DHT22;3925;48.636;9.516;2023-05-07T09:33:32;33.40;41.40
7762;DHT22;3925;48.636;9.516;2023-05-07T09:36:02;33.10;42.10
7762;DHT22;3925;48.636;9.516;2023-05-07T09:38:30;33.80;42.30
7762;DHT22;3925;48.636;9.516;2023-05-07T09:41:02;33.50;41.70
7762;DHT22;3925;48.636;9.516;2023-05-07T09:43:33;33.70;42.40
7762;DHT22;3925;48.636;9.516;2023-05-07T09:46:03;34.80;40.50
7762;DHT22;3925;48.636;9.516;2023-05-07T09:48:30;34.30;40.10
7762;DHT22;3925;48.636;9.516;2023-05-07T09:51:02;34.70;40.50
7762;DHT22;3925;48.636;9.516;2023-05-07T09:53:30;35.20;40.00
7762;DHT22;3925;48.636;9.516;2023-05-07T09:55:57;36.30;37.80
7762;DHT22;3925;48.636;9.516;2023-05-07T09:58:25;37.20;38.50
7762;DHT22;3925;48.636;9.516;2023-05-07T10:00:54;38.80;37.40
7762;DHT22;3925;48.636;9.516;2023-05-07T10:03:24;39.10;34.00
7762;DHT22;3925;48.636;9.516;2023-05-07T10:05:54;36.20;36.10
7762;DHT22;3925;48.636;9.516;2023-05-07T10:08:21;36.00;38.30
7762;DHT22;3925;48.636;9.516;2023-05-07T10:10:49;36.60;37.40
7762;DHT22;3925;48.636;9.516;2023-05-07T10:13:17;36.30;37.00
7762;DHT22;3925;48.636;9.516;2023-05-07T10:15:45;35.90;37.20
7762;DHT22;3925;48.636;9.516;2023-05-07T10:18:15;37.00;37.50
7762;DHT22;3925;48.636;9.516;2023-05-07T10:20:45;36.80;36.90
7762;DHT22;3925;48.636;9.516;2023-05-07T10:23:14;36.50;38.20
7762;DHT22;3925;48.636;9.516;2023-05-07T10:25:44;37.20;37.30
7762;DHT22;3925;48.636;9.516;2023-05-07T10:28:12;34.70;39.20
7762;DHT22;3925;48.636;9.516;2023-05-07T10:30:48;34.40;40.10
7762;DHT22;3925;48.636;9.516;2023-05-07T10:33:24;33.70;40.60
7762;DHT22;3925;48.636;9.516;2023-05-07T10:35:57;34.60;39.60
7762;DHT22;3925;48.636;9.516;2023-05-07T10:38:24;35.70;38.70
7762;DHT22;3925;48.636;9.516;2023-05-07T10:40:51;36.50;37.40
7762;DHT22;3925;48.636;9.516;2023-05-07T10:43:18;35.30;39.20
7762;DHT22;3925;48.636;9.516;2023-05-07T10:46:09;34.20;39.40
7762;DHT22;3925;48.636;9.516;2023-05-07T10:49:09;35.10;38.80
7762;DHT22;3925;48.636;9.516;2023-05-07T10:51:37;34.70;39.00
7762;DHT22;3925;48.636;9.516;2023-05-07T10:54:20;34.40;39.60
7762;DHT22;3925;48.636;9.516;2023-05-07T10:56:47;33.50;40.50
7762;DHT22;3925;48.636;9.516;2023-05-07T10:59:35;33.50;42.60
7762;DHT22;3925;48.636;9.516;2023-05-07T11:02:07;32.90;44.20
7762;DHT22;3925;48.636;9.516;2023-05-07T11:04:38;32.80;43.20
7762;DHT22;3925;48.636;9.516;2023-05-07T11:07:27;33.00;43.00
7762;DHT22;3925;48.636;9.516;2023-05-07T11:10:03;31.70;45.10
7762;DHT22;3925;48.636;9.516;2023-05-07T11:12:52;30.60;46.40
7762;DHT22;3925;48.636;9.516;2023-05-07T11:15:39;30.10;47.50
7762;DHT22;3925;48.636;9.516;2023-05-07T11:18:07;29.50;48.50
7762;DHT22;3925;48.636;9.516;2023-05-07T11:20:50;29.10;50.40
7762;DHT22;3925;48.636;9.516;2023-05-07T11:26:46;28.40;51.20
7762;DHT22;3925;48.636;9.516;2023-05-07T11:29:15;28.50;52.00
7762;DHT22;3925;48.636;9.516;2023-05-07T11:31:42;28.60;52.70
7762;DHT22;3925;48.636;9.516;2023-05-07T11:34:09;28.90;50.90
7762;DHT22;3925;48.636;9.516;2023-05-07T11:36:44;29.00;50.80
7762;DHT22;3925;48.636;9.516;2023-05-07T11:39:28;28.90;51.50
7762;DHT22;3925;48.636;9.516;2023-05-07T11:41:55;29.00;51.10
7762;DHT22;3925;48.636;9.516;2023-05-07T11:44:22;28.80;51.60
7762;DHT22;3925;48.636;9.516;2023-05-07T11:46:49;29.10;51.80
7762;DHT22;3925;48.636;9.516;2023-05-07T11:49:17;28.60;51.80
7762;DHT22;3925;48.636;9.516;2023-05-07T11:51:46;28.30;52.60
7762;DHT22;3925;48.636;9.516;2023-05-07T11:54:16;27.60;51.50
7762;DHT22;3925;48.636;9.516;2023-05-07T11:56:44;26.80;55.10
7762;DHT22;3925;48.636;9.516;2023-05-07T11:59:11;26.40;55.20
7762;DHT22;3925;48.636;9.516;2023-05-07T12:01:38;26.10;54.70
7762;DHT22;3925;48.636;9.516;2023-05-07T12:04:05;25.80;56.00
7762;DHT22;3925;48.636;9.516;2023-05-07T12:06:36;25.60;57.40
7762;DHT22;3925;48.636;9.516;2023-05-07T12:09:06;25.30;58.10
7762;DHT22;3925;48.636;9.516;2023-05-07T12:11:36;25.20;59.30
7762;DHT22;3925;48.636;9.516;2023-05-07T12:14:05;25.10;62.10
7762;DHT22;3925;48.636;9.516;2023-05-07T12:16:32;24.60;61.90
7762;DHT22;3925;48.636;9.516;2023-05-07T12:19:00;24.30;64.30
7762;DHT22;3925;48.636;9.516;2023-05-07T12:21:27;24.00;66.20
7762;DHT22;3925;48.636;9.516;2023-05-07T12:23:55;23.60;66.70
7762;DHT22;3925;48.636;9.516;2023-05-07T12:26:24;23.40;68.80
7762;DHT22;3925;48.636;9.516;2023-05-07T12:28:51;22.80;72.90
7762;DHT22;3925;48.636;9.516;2023-05-07T12:31:21;22.50;76.90
7762;DHT22;3925;48.636;9.516;2023-05-07T12:33:48;22.10;82.30
7762;DHT22;3925;48.636;9.516;2023-05-07T12:36:15;21.50;92.90
7762;DHT22;3925;48.636;9.516;2023-05-07T12:38:44;20.90;99.90
7762;DHT22;3925;48.636;9.516;2023-05-07T12:41:11;20.60;99.90
7762;DHT22;3925;48.636;9.516;2023-05-07T12:43:40;20.30;99.90
7762;DHT22;3925;48.636;9.516;2023-05-07T12:46:10;20.10;99.90
7762;DHT22;3925;48.636;9.516;2023-05-07T12:48:44;20.10;99.90
7762;DHT22;3925;48.636;9.516;2023-05-07T12:51:11;20.10;99.90
7762;DHT22;3925;48.636;9.516;2023-05-07T12:53:41;20.10;99.90
7762;DHT22;3925;48.636;9.516;2023-05-07T12:56:08;20.10;99.90
7762;DHT22;3925;48.636;9.516;2023-05-07T12:58:36;20.00;99.90
7762;DHT22;3925;48.636;9.516;2023-05-07T13:01:06;19.90;99.90
7762;DHT22;3925;48.636;9.516;2023-05-07T13:03:38;19.70;99.90
7762;DHT22;3925;48.636;9.516;2023-05-07T13:06:06;19.70;99.90
7762;DHT22;3925;48.636;9.516;2023-05-07T13:08:36;19.70;99.90
7762;DHT22;3925;48.636;9.516;2023-05-07T13:11:07;19.70;99.90
7762;DHT22;3925;48.636;9.516;2023-05-07T13:13:35;19.70;99.90
7762;DHT22;3925;48.636;9.516;2023-05-07T13:16:05;19.70;99.90
7762;DHT22;3925;48.636;9.516;2023-05-07T13:18:32;19.80;99.90
7762;DHT22;3925;48.636;9.516;2023-05-07T13:21:00;19.80;99.90
7762;DHT22;3925;48.636;9.516;2023-05-07T13:23:27;19.70;99.90
7762;DHT22;3925;48.636;9.516;2023-05-07T13:25:54;19.80;99.90
7762;DHT22;3925;48.636;9.516;2023-05-07T13:28:23;19.70;99.90
7762;DHT22;3925;48.636;9.516;2023-05-07T13:30:50;19.70;99.90
7762;DHT22;3925;48.636;9.516;2023-05-07T13:33:18;19.70;99.90
7762;DHT22;3925;48.636;9.516;2023-05-07T13:35:45;19.70;99.90
7762;DHT22;3925;48.636;9.516;2023-05-07T13:38:12;19.70;99.90
7762;DHT22;3925;48.636;9.516;2023-05-07T13:40:41;19.80;99.90
7762;DHT22;3925;48.636;9.516;2023-05-07T13:43:08;19.60;99.90
7762;DHT22;3925;48.636;9.516;2023-05-07T13:45:36;19.60;99.90
7762;DHT22;3925;48.636;9.516;2023-05-07T13:48:03;19.40;99.90
7762;DHT22;3925;48.636;9.516;2023-05-07T13:50:31;19.10;99.90
7762;DHT22;3925;48.636;9.516;2023-05-07T13:52:58;19.20;99.90
7762;DHT22;3925;48.636;9.516;2023-05-07T13:55:25;19.10;99.90
7762;DHT22;3925;48.636;9.516;2023-05-07T13:57:56;19.20;99.90
7762;DHT22;3925;48.636;9.516;2023-05-07T14:00:24;19.20;99.90
7762;DHT22;3925;48.636;9.516;2023-05-07T14:02:51;19.00;99.90
7762;DHT22;3925;48.636;9.516;2023-05-07T14:05:20;18.90;99.90
7762;DHT22;3925;48.636;9.516;2023-05-07T14:07:49;18.60;99.90
7762;DHT22;3925;48.636;9.516;2023-05-07T14:10:19;18.30;99.90
7762;DHT22;3925;48.636;9.516;2023-05-07T14:12:46;18.10;99.90
7762;DHT22;3925;48.636;9.516;2023-05-07T14:15:13;17.80;99.90
7762;DHT22;3925;48.636;9.516;2023-05-07T14:17:41;17.80;99.90
7762;DHT22;3925;48.636;9.516;2023-05-07T14:20:09;17.60;99.90
7762;DHT22;3925;48.636;9.516;2023-05-07T14:22:36;17.50;99.90
7762;DHT22;3925;48.636;9.516;2023-05-07T14:25:05;17.40;99.90
7762;DHT22;3925;48.636;9.516;2023-05-07T14:27:32;17.20;99.90
7762;DHT22;3925;48.636;9.516;2023-05-07T14:29:59;17.10;99.90
7762;DHT22;3925;48.636;9.516;2023-05-07T14:32:26;17.10;99.90
7762;DHT22;3925;48.636;9.516;2023-05-07T14:34:53;17.00;99.90
7762;DHT22;3925;48.636;9.516;2023-05-07T14:37:20;16.90;99.90
7762;DHT22;3925;48.636;9.516;2023-05-07T14:39:47;16.70;99.90
7762;DHT22;3925;48.636;9.516;2023-05-07T14:42:15;16.60;99.90
7762;DHT22;3925;48.636;9.516;2023-05-07T14:44:42;16.50;99.90
7762;DHT22;3925;48.636;9.516;2023-05-07T14:47:10;16.40;99.90
7762;DHT22;3925;48.636;9.516;2023-05-07T14:49:37;16.30;99.90
7762;DHT22;3925;48.636;9.516;2023-05-07T14:52:04;16.40;99.90
7762;DHT22;3925;48.636;9.516;2023-05-07T14:54:33;16.40;99.90
7762;DHT22;3925;48.636;9.516;2023-05-07T14:57:01;16.20;99.90
7762;DHT22;3925;48.636;9.516;2023-05-07T14:59:29;16.00;99.90
7762;DHT22;3925;48.636;9.516;2023-05-07T15:01:56;16.00;99.90
7762;DHT22;3925;48.636;9.516;2023-05-07T15:04:23;16.10;99.90
7762;DHT22;3925;48.636;9.516;2023-05-07T15:06:50;16.10;99.90
7762;DHT22;3925;48.636;9.516;2023-05-07T15:09:19;16.20;99.90
7762;DHT22;3925;48.636;9.516;2023-05-07T15:11:45;16.20;99.90
7762;DHT22;3925;48.636;9.516;2023-05-07T15:14:12;16.30;99.90
7762;DHT22;3925;48.636;9.516;2023-05-07T15:16:41;16.50;99.90
7762;DHT22;3925;48.636;9.516;2023-05-07T15:19:08;16.60;99.90
7762;DHT22;3925;48.636;9.516;2023-05-07T15:21:34;16.60;99.90
7762;DHT22;3925;48.636;9.516;2023-05-07T15:24:02;16.60;99.90
7762;DHT22;3925;48.636;9.516;2023-05-07T15:26:29;16.60;99.90
7762;DHT22;3925;48.636;9.516;2023-05-07T15:28:56;16.50;99.90
7762;DHT22;3925;48.636;9.516;2023-05-07T15:31:23;16.40;99.90
7762;DHT22;3925;48.636;9.516;2023-05-07T15:33:51;16.30;99.90
7762;DHT22;3925;48.636;9.516;2023-05-07T15:36:21;16.30;99.90
7762;DHT22;3925;48.636;9.516;2023-05-07T15:38:49;16.20;99.90
7762;DHT22;3925;48.636;9.516;2023-05-07T15:41:16;16.10;99.90
7762;DHT22;3925;48.636;9.516;2023-05-07T15:43:47;16.20;99.90
7762;DHT22;3925;48.636;9.516;2023-05-07T15:46:18;16.20;99.90
7762;DHT22;3925;48.636;9.516;2023-05-07T15:48:45;16.20;99.90
7762;DHT22;3925;48.636;9.516;2023-05-07T15:51:13;16.10;99.90
7762;DHT22;3925;48.636;9.516;2023-05-07T15:53:40;16.00;99.90
7762;DHT22;3925;48.636;9.516;2023-05-07T15:56:07;16.00;99.90
7762;DHT22;3925;48.636;9.516;2023-05-07T15:58:34;16.00;99.90
7762;DHT22;3925;48.636;9.516;2023-05-07T16:01:01;16.00;99.90
7762;DHT22;3925;48.636;9.516;2023-05-07T16:03:29;16.00;99.90
7762;DHT22;3925;48.636;9.516;2023-05-07T16:05:56;16.00;99.90
7762;DHT22;3925;48.636;9.516;2023-05-07T16:08:26;15.90;99.90
7762;DHT22;3925;48.636;9.516;2023-05-07T16:10:53;15.90;99.90